sensor_id;sensor_type;location;lat;lon;timestamp;temperature;humidity
45849;DHT22;31567;54.600;9.842;2024-01-30T00:00:26;8.90;99.90
45849;DHT22;31567;54.600;9.842;2024-01-30T00:04:05;9.00;99.90
45849;DHT22;31567;54.600;9.842;2024-01-30T00:07:45;8.90;99.90
45849;DHT22;31567;54.600;9.842;2024-01-30T00:11:24;8.90;99.90
45849;DHT22;31567;54.600;9.842;2024-01-30T00:15:08;9.00;99.90
45849;DHT22;31567;54.600;9.842;2024-01-30T00:18:49;9.00;99.90
45849;DHT22;31567;54.600;9.842;2024-01-30T00:22:28;9.00;99.90
45849;DHT22;31567;54.600;9.842;2024-01-30T00:26:09;9.00;99.90
45849;DHT22;31567;54.600;9.842;2024-01-30T00:29:49;9.00;99.90
45849;DHT22;31567;54.600;9.842;2024-01-30T00:33:28;9.10;99.90
45849;DHT22;31567;54.600;9.842;2024-01-30T00:37:08;9.10;99.90
45849;DHT22;31567;54.600;9.842;2024-01-30T00:40:48;9.10;99.90
45849;DHT22;31567;54.600;9.842;2024-01-30T00:44:27;9.10;99.90
45849;DHT22;31567;54.600;9.842;2024-01-30T00:48:07;9.20;99.90
45849;DHT22;31567;54.600;9.842;2024-01-30T00:51:47;9.10;99.90
45849;DHT22;31567;54.600;9.842;2024-01-30T00:55:26;9.20;99.90
45849;DHT22;31567;54.600;9.842;2024-01-30T00:59:06;9.10;99.90
45849;DHT22;31567;54.600;9.842;2024-01-30T01:02:45;9.10;99.90
45849;DHT22;31567;54.600;9.842;2024-01-30T01:06:25;9.10;99.90
45849;DHT22;31567;54.600;9.842;2024-01-30T01:10:05;9.10;99.90
45849;DHT22;31567;54.600;9.842;2024-01-30T01:13:44;9.10;99.90
45849;DHT22;31567;54.600;9.842;2024-01-30T01:17:24;9.10;99.90
45849;DHT22;31567;54.600;9.842;2024-01-30T01:21:03;9.10;99.90
45849;DHT22;31567;54.600;9.842;2024-01-30T01:24:44;9.10;99.90
45849;DHT22;31567;54.600;9.842;2024-01-30T01:28:23;9.10;99.90
45849;DHT22;31567;54.600;9.842;2024-01-30T01:32:03;9.00;99.90
45849;DHT22;31567;54.600;9.842;2024-01-30T01:35:43;9.00;99.90
45849;DHT22;31567;54.600;9.842;2024-01-30T01:39:22;9.10;99.90
45849;DHT22;31567;54.600;9.842;2024-01-30T01:43:05;9.10;99.90
45849;DHT22;31567;54.600;9.842;2024-01-30T01:46:44;9.10;99.90
45849;DHT22;31567;54.600;9.842;2024-01-30T01:50:24;9.10;99.90
45849;DHT22;31567;54.600;9.842;2024-01-30T01:54:05;9.20;99.90
45849;DHT22;31567;54.600;9.842;2024-01-30T01:57:45;9.20;99.90
45849;DHT22;31567;54.600;9.842;2024-01-30T02:01:25;9.20;99.90
45849;DHT22;31567;54.600;9.842;2024-01-30T02:05:05;9.20;99.90
45849;DHT22;31567;54.600;9.842;2024-01-30T02:08:45;9.30;99.90
45849;DHT22;31567;54.600;9.842;2024-01-30T02:12:25;9.30;99.90
45849;DHT22;31567;54.600;9.842;2024-01-30T02:16:04;9.30;99.90
45849;DHT22;31567;54.600;9.842;2024-01-30T02:19:44;9.40;99.90
45849;DHT22;31567;54.600;9.842;2024-01-30T02:23:27;9.40;99.90
45849;DHT22;31567;54.600;9.842;2024-01-30T02:27:06;9.40;99.90
45849;DHT22;31567;54.600;9.842;2024-01-30T02:30:46;9.40;99.90
45849;DHT22;31567;54.600;9.842;2024-01-30T02:34:26;9.40;99.90
45849;DHT22;31567;54.600;9.842;2024-01-30T02:38:05;9.40;99.90
45849;DHT22;31567;54.600;9.842;2024-01-30T02:41:45;9.50;99.90
45849;DHT22;31567;54.600;9.842;2024-01-30T02:45:24;9.50;99.90
45849;DHT22;31567;54.600;9.842;2024-01-30T02:49:04;9.50;99.90
45849;DHT22;31567;54.600;9.842;2024-01-30T02:52:43;9.40;99.90
45849;DHT22;31567;54.600;9.842;2024-01-30T02:56:23;9.50;99.90
45849;DHT22;31567;54.600;9.842;2024-01-30T03:00:03;9.50;99.90
45849;DHT22;31567;54.600;9.842;2024-01-30T03:03:44;9.50;99.90
45849;DHT22;31567;54.600;9.842;2024-01-30T03:07:24;9.50;99.90
45849;DHT22;31567;54.600;9.842;2024-01-30T03:11:03;9.50;99.90
45849;DHT22;31567;54.600;9.842;2024-01-30T03:14:43;9.50;99.90
45849;DHT22;31567;54.600;9.842;2024-01-30T03:18:23;9.40;99.90
45849;DHT22;31567;54.600;9.842;2024-01-30T03:22:02;9.30;99.90
45849;DHT22;31567;54.600;9.842;2024-01-30T03:25:42;9.30;99.90
45849;DHT22;31567;54.600;9.842;2024-01-30T03:29:21;9.20;99.90
45849;DHT22;31567;54.600;9.842;2024-01-30T03:33:01;9.20;99.90
45849;DHT22;31567;54.600;9.842;2024-01-30T03:36:40;9.20;99.90
45849;DHT22;31567;54.600;9.842;2024-01-30T03:40:20;9.10;99.90
45849;DHT22;31567;54.600;9.842;2024-01-30T03:44:00;9.10;99.90
45849;DHT22;31567;54.600;9.842;2024-01-30T03:47:39;9.10;99.90
45849;DHT22;31567;54.600;9.842;2024-01-30T03:51:19;9.00;99.90
45849;DHT22;31567;54.600;9.842;2024-01-30T03:54:58;9.00;99.90
45849;DHT22;31567;54.600;9.842;2024-01-30T03:58:38;9.00;99.90
45849;DHT22;31567;54.600;9.842;2024-01-30T04:02:17;8.90;99.90
45849;DHT22;31567;54.600;9.842;2024-01-30T04:05:57;8.90;99.90
45849;DHT22;31567;54.600;9.842;2024-01-30T04:09:38;8.80;99.90
45849;DHT22;31567;54.600;9.842;2024-01-30T04:13:18;8.80;99.90
45849;DHT22;31567;54.600;9.842;2024-01-30T04:16:57;8.70;99.90
45849;DHT22;31567;54.600;9.842;2024-01-30T04:20:37;8.70;99.90
45849;DHT22;31567;54.600;9.842;2024-01-30T04:24:16;8.60;99.90
45849;DHT22;31567;54.600;9.842;2024-01-30T04:27:57;8.60;99.90
45849;DHT22;31567;54.600;9.842;2024-01-30T04:31:37;8.50;99.90
45849;DHT22;31567;54.600;9.842;2024-01-30T04:35:17;8.40;99.90
45849;DHT22;31567;54.600;9.842;2024-01-30T04:38:56;8.40;99.90
45849;DHT22;31567;54.600;9.842;2024-01-30T04:42:36;8.30;99.90
45849;DHT22;31567;54.600;9.842;2024-01-30T04:46:15;8.30;99.90
45849;DHT22;31567;54.600;9.842;2024-01-30T04:49:55;8.20;99.90
45849;DHT22;31567;54.600;9.842;2024-01-30T04:53:34;8.10;99.90
45849;DHT22;31567;54.600;9.842;2024-01-30T04:57:14;8.10;99.90
45849;DHT22;31567;54.600;9.842;2024-01-30T05:00:54;8.10;99.90
45849;DHT22;31567;54.600;9.842;2024-01-30T05:04:33;8.00;99.90
45849;DHT22;31567;54.600;9.842;2024-01-30T05:08:13;8.00;99.90
45849;DHT22;31567;54.600;9.842;2024-01-30T05:11:52;8.00;99.90
45849;DHT22;31567;54.600;9.842;2024-01-30T05:15:32;8.00;99.90
45849;DHT22;31567;54.600;9.842;2024-01-30T05:19:12;7.90;99.90
45849;DHT22;31567;54.600;9.842;2024-01-30T05:22:51;7.90;99.90
45849;DHT22;31567;54.600;9.842;2024-01-30T05:26:31;7.90;99.90
45849;DHT22;31567;54.600;9.842;2024-01-30T05:30:11;8.00;99.90
45849;DHT22;31567;54.600;9.842;2024-01-30T05:33:51;8.00;99.90
45849;DHT22;31567;54.600;9.842;2024-01-30T05:37:30;8.00;99.90
45849;DHT22;31567;54.600;9.842;2024-01-30T05:41:10;8.00;99.90
45849;DHT22;31567;54.600;9.842;2024-01-30T05:44:50;8.00;99.90
45849;DHT22;31567;54.600;9.842;2024-01-30T05:48:29;8.00;99.90
45849;DHT22;31567;54.600;9.842;2024-01-30T05:52:09;8.00;99.90
45849;DHT22;31567;54.600;9.842;2024-01-30T05:55:49;8.00;99.90
45849;DHT22;31567;54.600;9.842;2024-01-30T05:59:28;8.00;99.90
45849;DHT22;31567;54.600;9.842;2024-01-30T06:03:08;8.00;99.90
45849;DHT22;31567;54.600;9.842;2024-01-30T06:06:47;7.90;99.90
45849;DHT22;31567;54.600;9.842;2024-01-30T06:10:27;7.90;99.90
45849;DHT22;31567;54.600;9.842;2024-01-30T06:14:06;8.00;99.90
45849;DHT22;31567;54.600;9.842;2024-01-30T06:17:46;7.90;99.90
45849;DHT22;31567;54.600;9.842;2024-01-30T06:21:25;7.90;99.90
45849;DHT22;31567;54.600;9.842;2024-01-30T06:25:05;7.90;99.90
45849;DHT22;31567;54.600;9.842;2024-01-30T06:28:45;7.90;99.90
45849;DHT22;31567;54.600;9.842;2024-01-30T06:32:24;7.90;99.90
45849;DHT22;31567;54.600;9.842;2024-01-30T06:36:04;7.90;99.90
45849;DHT22;31567;54.600;9.842;2024-01-30T06:39:43;7.90;99.90
45849;DHT22;31567;54.600;9.842;2024-01-30T06:43:23;7.90;99.90
45849;DHT22;31567;54.600;9.842;2024-01-30T06:47:03;7.90;99.90
45849;DHT22;31567;54.600;9.842;2024-01-30T06:50:42;7.90;99.90
45849;DHT22;31567;54.600;9.842;2024-01-30T06:54:22;7.90;99.90
45849;DHT22;31567;54.600;9.842;2024-01-30T06:58:01;7.90;99.90
45849;DHT22;31567;54.600;9.842;2024-01-30T07:01:41;8.00;99.90
45849;DHT22;31567;54.600;9.842;2024-01-30T07:05:20;7.90;99.90
45849;DHT22;31567;54.600;9.842;2024-01-30T07:09:01;7.90;99.90
45849;DHT22;31567;54.600;9.842;2024-01-30T07:12:40;7.80;99.90
45849;DHT22;31567;54.600;9.842;2024-01-30T07:16:20;7.80;99.90
45849;DHT22;31567;54.600;9.842;2024-01-30T07:19:59;7.80;99.90
45849;DHT22;31567;54.600;9.842;2024-01-30T07:23:39;7.80;99.90
45849;DHT22;31567;54.600;9.842;2024-01-30T07:27:18;7.70;99.90
45849;DHT22;31567;54.600;9.842;2024-01-30T07:30:58;7.70;99.90
45849;DHT22;31567;54.600;9.842;2024-01-30T07:34:38;7.70;99.90
45849;DHT22;31567;54.600;9.842;2024-01-30T07:38:17;7.80;99.90
45849;DHT22;31567;54.600;9.842;2024-01-30T07:41:57;7.70;99.90
45849;DHT22;31567;54.600;9.842;2024-01-30T07:45:36;7.70;99.90
45849;DHT22;31567;54.600;9.842;2024-01-30T07:49:17;7.70;99.90
45849;DHT22;31567;54.600;9.842;2024-01-30T07:52:57;7.80;99.90
45849;DHT22;31567;54.600;9.842;2024-01-30T07:56:36;7.80;99.90
45849;DHT22;31567;54.600;9.842;2024-01-30T08:00:16;7.80;99.90
45849;DHT22;31567;54.600;9.842;2024-01-30T08:03:56;7.80;99.90
45849;DHT22;31567;54.600;9.842;2024-01-30T08:07:35;7.80;99.90
45849;DHT22;31567;54.600;9.842;2024-01-30T08:11:15;7.80;99.90
45849;DHT22;31567;54.600;9.842;2024-01-30T08:14:55;7.90;99.90
45849;DHT22;31567;54.600;9.842;2024-01-30T08:18:34;7.90;99.90
45849;DHT22;31567;54.600;9.842;2024-01-30T08:22:14;8.00;99.90
45849;DHT22;31567;54.600;9.842;2024-01-30T08:25:53;8.00;99.90
45849;DHT22;31567;54.600;9.842;2024-01-30T08:29:33;8.00;99.90
45849;DHT22;31567;54.600;9.842;2024-01-30T08:33:12;8.10;99.90
45849;DHT22;31567;54.600;9.842;2024-01-30T08:36:52;8.10;99.90
45849;DHT22;31567;54.600;9.842;2024-01-30T08:40:32;8.20;99.90
45849;DHT22;31567;54.600;9.842;2024-01-30T08:44:11;8.20;99.90
45849;DHT22;31567;54.600;9.842;2024-01-30T08:47:51;8.20;99.90
45849;DHT22;31567;54.600;9.842;2024-01-30T08:51:31;8.20;99.90
45849;DHT22;31567;54.600;9.842;2024-01-30T08:55:10;8.20;99.90
45849;DHT22;31567;54.600;9.842;2024-01-30T08:58:50;8.30;99.90
45849;DHT22;31567;54.600;9.842;2024-01-30T09:02:29;8.30;99.90
45849;DHT22;31567;54.600;9.842;2024-01-30T09:06:09;8.40;99.90
45849;DHT22;31567;54.600;9.842;2024-01-30T09:09:49;8.50;99.90
45849;DHT22;31567;54.600;9.842;2024-01-30T09:13:29;8.50;99.90
45849;DHT22;31567;54.600;9.842;2024-01-30T09:17:08;8.50;99.90
45849;DHT22;31567;54.600;9.842;2024-01-30T09:20:48;8.40;99.90
45849;DHT22;31567;54.600;9.842;2024-01-30T09:24:28;8.40;99.90
45849;DHT22;31567;54.600;9.842;2024-01-30T09:28:07;8.30;99.90
45849;DHT22;31567;54.600;9.842;2024-01-30T09:31:47;8.30;99.90
45849;DHT22;31567;54.600;9.842;2024-01-30T09:35:26;8.20;99.90
45849;DHT22;31567;54.600;9.842;2024-01-30T09:39:06;8.20;99.90
45849;DHT22;31567;54.600;9.842;2024-01-30T09:42:47;8.30;99.90
45849;DHT22;31567;54.600;9.842;2024-01-30T09:46:32;8.30;99.90
45849;DHT22;31567;54.600;9.842;2024-01-30T09:50:13;8.40;99.90
45849;DHT22;31567;54.600;9.842;2024-01-30T09:53:54;8.40;99.90
45849;DHT22;31567;54.600;9.842;2024-01-30T09:57:34;8.40;99.90
45849;DHT22;31567;54.600;9.842;2024-01-30T10:01:15;8.50;99.90
45849;DHT22;31567;54.600;9.842;2024-01-30T10:04:58;8.50;99.90
45849;DHT22;31567;54.600;9.842;2024-01-30T10:08:38;8.70;99.90
45849;DHT22;31567;54.600;9.842;2024-01-30T10:12:18;8.70;99.90
45849;DHT22;31567;54.600;9.842;2024-01-30T10:15:57;8.80;99.90
45849;DHT22;31567;54.600;9.842;2024-01-30T10:19:41;8.90;99.90
45849;DHT22;31567;54.600;9.842;2024-01-30T10:23:20;8.90;99.90
45849;DHT22;31567;54.600;9.842;2024-01-30T10:27:00;9.00;99.90
45849;DHT22;31567;54.600;9.842;2024-01-30T10:30:40;9.10;99.90
45849;DHT22;31567;54.600;9.842;2024-01-30T10:34:19;9.20;99.90
45849;DHT22;31567;54.600;9.842;2024-01-30T10:37:59;9.20;99.90
45849;DHT22;31567;54.600;9.842;2024-01-30T10:41:43;9.30;99.90
45849;DHT22;31567;54.600;9.842;2024-01-30T10:45:25;9.30;99.90
45849;DHT22;31567;54.600;9.842;2024-01-30T10:49:07;9.20;99.90
45849;DHT22;31567;54.600;9.842;2024-01-30T10:52:47;9.20;99.90
45849;DHT22;31567;54.600;9.842;2024-01-30T10:56:28;9.10;99.90
45849;DHT22;31567;54.600;9.842;2024-01-30T11:00:10;9.10;99.90
45849;DHT22;31567;54.600;9.842;2024-01-30T11:03:52;9.00;99.90
45849;DHT22;31567;54.600;9.842;2024-01-30T11:07:31;9.00;99.90
45849;DHT22;31567;54.600;9.842;2024-01-30T11:11:11;9.00;99.90
45849;DHT22;31567;54.600;9.842;2024-01-30T11:15:04;9.10;99.90
45849;DHT22;31567;54.600;9.842;2024-01-30T11:18:50;9.10;99.90
45849;DHT22;31567;54.600;9.842;2024-01-30T11:22:31;9.20;99.90
45849;DHT22;31567;54.600;9.842;2024-01-30T11:26:11;9.20;99.90
45849;DHT22;31567;54.600;9.842;2024-01-30T11:29:51;9.20;99.90
45849;DHT22;31567;54.600;9.842;2024-01-30T11:33:30;9.20;99.90
45849;DHT22;31567;54.600;9.842;2024-01-30T11:37:12;9.20;99.90
45849;DHT22;31567;54.600;9.842;2024-01-30T11:40:53;9.30;99.90
45849;DHT22;31567;54.600;9.842;2024-01-30T11:44:33;9.30;99.90
45849;DHT22;31567;54.600;9.842;2024-01-30T11:48:13;9.30;99.90
45849;DHT22;31567;54.600;9.842;2024-01-30T11:51:53;9.40;99.90
45849;DHT22;31567;54.600;9.842;2024-01-30T11:55:33;9.40;99.90
45849;DHT22;31567;54.600;9.842;2024-01-30T11:59:15;9.40;99.90
45849;DHT22;31567;54.600;9.842;2024-01-30T12:02:55;9.40;99.90
45849;DHT22;31567;54.600;9.842;2024-01-30T12:06:35;9.30;99.90
45849;DHT22;31567;54.600;9.842;2024-01-30T12:10:15;9.30;99.90
45849;DHT22;31567;54.600;9.842;2024-01-30T12:13:56;9.30;99.90
45849;DHT22;31567;54.600;9.842;2024-01-30T12:17:36;9.30;99.90
45849;DHT22;31567;54.600;9.842;2024-01-30T12:21:19;9.20;99.90
45849;DHT22;31567;54.600;9.842;2024-01-30T12:24:58;9.20;99.90
45849;DHT22;31567;54.600;9.842;2024-01-30T12:28:47;9.20;99.90
45849;DHT22;31567;54.600;9.842;2024-01-30T12:32:28;9.20;99.90
45849;DHT22;31567;54.600;9.842;2024-01-30T12:36:07;9.20;99.90
45849;DHT22;31567;54.600;9.842;2024-01-30T12:39:47;9.20;99.90
45849;DHT22;31567;54.600;9.842;2024-01-30T12:43:27;9.20;99.90
45849;DHT22;31567;54.600;9.842;2024-01-30T12:47:09;9.10;99.90
45849;DHT22;31567;54.600;9.842;2024-01-30T12:50:49;9.10;99.90
45849;DHT22;31567;54.600;9.842;2024-01-30T12:54:29;9.10;99.90
45849;DHT22;31567;54.600;9.842;2024-01-30T12:58:08;9.20;99.90
45849;DHT22;31567;54.600;9.842;2024-01-30T13:01:48;9.20;99.90
45849;DHT22;31567;54.600;9.842;2024-01-30T13:05:28;9.30;99.90
45849;DHT22;31567;54.600;9.842;2024-01-30T13:09:07;9.20;99.90
45849;DHT22;31567;54.600;9.842;2024-01-30T13:12:47;9.30;99.90
45849;DHT22;31567;54.600;9.842;2024-01-30T13:16:26;9.30;99.90
45849;DHT22;31567;54.600;9.842;2024-01-30T13:20:06;9.30;99.90
45849;DHT22;31567;54.600;9.842;2024-01-30T13:23:47;9.40;99.90
45849;DHT22;31567;54.600;9.842;2024-01-30T13:27:27;9.40;99.90
45849;DHT22;31567;54.600;9.842;2024-01-30T13:31:06;9.40;99.90
45849;DHT22;31567;54.600;9.842;2024-01-30T13:34:46;9.50;99.90
45849;DHT22;31567;54.600;9.842;2024-01-30T13:38:25;9.50;99.90
45849;DHT22;31567;54.600;9.842;2024-01-30T13:42:05;9.60;99.90
45849;DHT22;31567;54.600;9.842;2024-01-30T13:45:45;9.60;99.90
45849;DHT22;31567;54.600;9.842;2024-01-30T13:49:25;9.70;99.90
45849;DHT22;31567;54.600;9.842;2024-01-30T13:53:04;9.60;99.90
45849;DHT22;31567;54.600;9.842;2024-01-30T13:56:44;9.70;99.90
45849;DHT22;31567;54.600;9.842;2024-01-30T14:00:24;9.70;99.90
45849;DHT22;31567;54.600;9.842;2024-01-30T14:04:05;9.70;99.90
45849;DHT22;31567;54.600;9.842;2024-01-30T14:07:44;9.70;99.90
45849;DHT22;31567;54.600;9.842;2024-01-30T14:11:24;9.70;99.90
45849;DHT22;31567;54.600;9.842;2024-01-30T14:15:04;9.70;99.90
45849;DHT22;31567;54.600;9.842;2024-01-30T14:18:44;9.70;99.90
45849;DHT22;31567;54.600;9.842;2024-01-30T14:22:23;9.70;99.90
45849;DHT22;31567;54.600;9.842;2024-01-30T14:26:03;9.70;99.90
45849;DHT22;31567;54.600;9.842;2024-01-30T14:29:42;9.70;99.90
45849;DHT22;31567;54.600;9.842;2024-01-30T14:33:23;9.70;99.90
45849;DHT22;31567;54.600;9.842;2024-01-30T14:37:02;9.80;99.90
45849;DHT22;31567;54.600;9.842;2024-01-30T14:40:42;9.80;99.90
45849;DHT22;31567;54.600;9.842;2024-01-30T14:44:21;9.80;99.90
45849;DHT22;31567;54.600;9.842;2024-01-30T14:48:02;9.90;99.90
45849;DHT22;31567;54.600;9.842;2024-01-30T14:51:42;10.00;99.90
45849;DHT22;31567;54.600;9.842;2024-01-30T14:55:21;10.00;99.90
45849;DHT22;31567;54.600;9.842;2024-01-30T14:59:01;10.00;99.90
45849;DHT22;31567;54.600;9.842;2024-01-30T15:02:41;10.00;99.90
45849;DHT22;31567;54.600;9.842;2024-01-30T15:06:21;10.00;99.90
45849;DHT22;31567;54.600;9.842;2024-01-30T15:10:03;10.00;99.90
45849;DHT22;31567;54.600;9.842;2024-01-30T15:13:43;10.10;99.90
45849;DHT22;31567;54.600;9.842;2024-01-30T15:17:22;10.10;99.90
45849;DHT22;31567;54.600;9.842;2024-01-30T15:21:02;10.10;99.90
45849;DHT22;31567;54.600;9.842;2024-01-30T15:24:42;10.10;99.90
45849;DHT22;31567;54.600;9.842;2024-01-30T15:28:37;10.20;99.90
45849;DHT22;31567;54.600;9.842;2024-01-30T15:32:17;10.20;99.90
45849;DHT22;31567;54.600;9.842;2024-01-30T15:36:00;10.10;99.90
45849;DHT22;31567;54.600;9.842;2024-01-30T15:39:40;10.10;99.90
45849;DHT22;31567;54.600;9.842;2024-01-30T15:43:20;10.10;99.90
45849;DHT22;31567;54.600;9.842;2024-01-30T15:46:59;10.10;99.90
45849;DHT22;31567;54.600;9.842;2024-01-30T15:50:39;10.00;99.90
45849;DHT22;31567;54.600;9.842;2024-01-30T15:54:18;10.00;99.90
45849;DHT22;31567;54.600;9.842;2024-01-30T15:57:58;9.90;99.90
45849;DHT22;31567;54.600;9.842;2024-01-30T16:01:38;9.90;99.90
45849;DHT22;31567;54.600;9.842;2024-01-30T16:05:17;9.90;99.90
45849;DHT22;31567;54.600;9.842;2024-01-30T16:08:57;10.00;99.90
45849;DHT22;31567;54.600;9.842;2024-01-30T16:12:37;10.00;99.90
45849;DHT22;31567;54.600;9.842;2024-01-30T16:16:16;10.00;99.90
45849;DHT22;31567;54.600;9.842;2024-01-30T16:19:56;10.00;99.90
45849;DHT22;31567;54.600;9.842;2024-01-30T16:23:35;10.00;99.90
45849;DHT22;31567;54.600;9.842;2024-01-30T16:27:15;10.00;99.90
45849;DHT22;31567;54.600;9.842;2024-01-30T16:30:55;9.90;99.90
45849;DHT22;31567;54.600;9.842;2024-01-30T16:34:34;9.90;99.90
45849;DHT22;31567;54.600;9.842;2024-01-30T16:38:14;9.80;99.90
45849;DHT22;31567;54.600;9.842;2024-01-30T16:41:53;9.80;99.90
45849;DHT22;31567;54.600;9.842;2024-01-30T16:45:33;9.70;99.90
45849;DHT22;31567;54.600;9.842;2024-01-30T16:49:12;9.70;99.90
45849;DHT22;31567;54.600;9.842;2024-01-30T16:52:53;9.70;99.90
45849;DHT22;31567;54.600;9.842;2024-01-30T16:56:32;9.70;99.90
45849;DHT22;31567;54.600;9.842;2024-01-30T17:00:12;9.70;99.90
45849;DHT22;31567;54.600;9.842;2024-01-30T17:03:54;9.60;99.90
45849;DHT22;31567;54.600;9.842;2024-01-30T17:07:33;9.60;99.90
45849;DHT22;31567;54.600;9.842;2024-01-30T17:11:14;9.60;99.90
45849;DHT22;31567;54.600;9.842;2024-01-30T17:14:54;9.60;99.90
45849;DHT22;31567;54.600;9.842;2024-01-30T17:18:33;9.50;99.90
45849;DHT22;31567;54.600;9.842;2024-01-30T17:22:13;9.50;99.90
45849;DHT22;31567;54.600;9.842;2024-01-30T17:25:52;9.50;99.90
45849;DHT22;31567;54.600;9.842;2024-01-30T17:29:32;9.40;99.90
45849;DHT22;31567;54.600;9.842;2024-01-30T17:33:11;9.40;99.90
45849;DHT22;31567;54.600;9.842;2024-01-30T17:36:51;9.30;99.90
45849;DHT22;31567;54.600;9.842;2024-01-30T17:40:31;9.30;99.90
45849;DHT22;31567;54.600;9.842;2024-01-30T17:44:11;9.20;99.90
45849;DHT22;31567;54.600;9.842;2024-01-30T17:47:52;9.20;99.90
45849;DHT22;31567;54.600;9.842;2024-01-30T17:51:32;9.20;99.90
45849;DHT22;31567;54.600;9.842;2024-01-30T17:55:12;9.10;99.90
45849;DHT22;31567;54.600;9.842;2024-01-30T17:58:52;9.10;99.90
45849;DHT22;31567;54.600;9.842;2024-01-30T18:02:32;9.00;99.90
45849;DHT22;31567;54.600;9.842;2024-01-30T18:06:15;9.00;99.90
45849;DHT22;31567;54.600;9.842;2024-01-30T18:09:55;9.00;99.90
45849;DHT22;31567;54.600;9.842;2024-01-30T18:13:34;8.90;99.90
45849;DHT22;31567;54.600;9.842;2024-01-30T18:17:14;8.90;99.90
45849;DHT22;31567;54.600;9.842;2024-01-30T18:20:53;8.90;99.90
45849;DHT22;31567;54.600;9.842;2024-01-30T18:24:33;8.90;99.90
45849;DHT22;31567;54.600;9.842;2024-01-30T18:28:12;8.90;99.90
45849;DHT22;31567;54.600;9.842;2024-01-30T18:31:52;8.80;99.90
45849;DHT22;31567;54.600;9.842;2024-01-30T18:35:31;8.90;99.90
45849;DHT22;31567;54.600;9.842;2024-01-30T18:39:12;8.80;99.90
45849;DHT22;31567;54.600;9.842;2024-01-30T18:42:52;8.80;99.90
45849;DHT22;31567;54.600;9.842;2024-01-30T18:46:32;8.80;99.90
45849;DHT22;31567;54.600;9.842;2024-01-30T18:50:12;8.80;99.90
45849;DHT22;31567;54.600;9.842;2024-01-30T18:53:52;8.80;99.90
45849;DHT22;31567;54.600;9.842;2024-01-30T18:57:31;8.80;99.90
45849;DHT22;31567;54.600;9.842;2024-01-30T19:01:11;8.80;99.90
45849;DHT22;31567;54.600;9.842;2024-01-30T19:04:51;8.80;99.90
45849;DHT22;31567;54.600;9.842;2024-01-30T19:08:31;8.80;99.90
45849;DHT22;31567;54.600;9.842;2024-01-30T19:12:11;8.80;99.90
45849;DHT22;31567;54.600;9.842;2024-01-30T19:15:50;8.90;99.90
45849;DHT22;31567;54.600;9.842;2024-01-30T19:19:30;8.80;99.90
45849;DHT22;31567;54.600;9.842;2024-01-30T19:23:09;8.90;99.90
45849;DHT22;31567;54.600;9.842;2024-01-30T19:26:49;8.90;99.90
45849;DHT22;31567;54.600;9.842;2024-01-30T19:30:31;8.90;99.90
45849;DHT22;31567;54.600;9.842;2024-01-30T19:34:10;8.90;99.90
45849;DHT22;31567;54.600;9.842;2024-01-30T19:37:51;8.90;99.90
45849;DHT22;31567;54.600;9.842;2024-01-30T19:41:31;8.80;99.90
45849;DHT22;31567;54.600;9.842;2024-01-30T19:45:10;8.90;99.90
45849;DHT22;31567;54.600;9.842;2024-01-30T19:48:50;8.80;99.90
45849;DHT22;31567;54.600;9.842;2024-01-30T19:52:30;8.80;99.90
45849;DHT22;31567;54.600;9.842;2024-01-30T19:56:10;8.80;99.90
45849;DHT22;31567;54.600;9.842;2024-01-30T19:59:49;8.70;99.90
45849;DHT22;31567;54.600;9.842;2024-01-30T20:03:30;8.70;99.90
45849;DHT22;31567;54.600;9.842;2024-01-30T20:07:09;8.70;99.90
45849;DHT22;31567;54.600;9.842;2024-01-30T20:10:49;8.70;99.90
45849;DHT22;31567;54.600;9.842;2024-01-30T20:14:29;8.70;99.90
45849;DHT22;31567;54.600;9.842;2024-01-30T20:18:08;8.70;99.90
45849;DHT22;31567;54.600;9.842;2024-01-30T20:21:49;8.60;99.90
45849;DHT22;31567;54.600;9.842;2024-01-30T20:25:28;8.60;99.90
45849;DHT22;31567;54.600;9.842;2024-01-30T20:29:08;8.50;99.90
45849;DHT22;31567;54.600;9.842;2024-01-30T20:32:48;8.50;99.90
45849;DHT22;31567;54.600;9.842;2024-01-30T20:36:28;8.40;99.90
45849;DHT22;31567;54.600;9.842;2024-01-30T20:40:08;8.40;99.90
45849;DHT22;31567;54.600;9.842;2024-01-30T20:43:47;8.50;99.90
45849;DHT22;31567;54.600;9.842;2024-01-30T20:47:27;8.40;99.90
45849;DHT22;31567;54.600;9.842;2024-01-30T20:51:07;8.40;99.90
45849;DHT22;31567;54.600;9.842;2024-01-30T20:54:46;8.40;99.90
45849;DHT22;31567;54.600;9.842;2024-01-30T20:58:26;8.30;99.90
45849;DHT22;31567;54.600;9.842;2024-01-30T21:02:05;8.30;99.90
45849;DHT22;31567;54.600;9.842;2024-01-30T21:05:45;8.30;99.90
45849;DHT22;31567;54.600;9.842;2024-01-30T21:09:24;8.20;99.90
45849;DHT22;31567;54.600;9.842;2024-01-30T21:13:04;8.20;99.90
45849;DHT22;31567;54.600;9.842;2024-01-30T21:16:44;8.20;99.90
45849;DHT22;31567;54.600;9.842;2024-01-30T21:20:24;8.20;99.90
45849;DHT22;31567;54.600;9.842;2024-01-30T21:24:03;8.10;99.90
45849;DHT22;31567;54.600;9.842;2024-01-30T21:27:43;8.10;99.90
45849;DHT22;31567;54.600;9.842;2024-01-30T21:31:22;8.10;99.90
45849;DHT22;31567;54.600;9.842;2024-01-30T21:35:06;8.10;99.90
45849;DHT22;31567;54.600;9.842;2024-01-30T21:38:46;8.10;99.90
45849;DHT22;31567;54.600;9.842;2024-01-30T21:42:26;8.10;99.90
45849;DHT22;31567;54.600;9.842;2024-01-30T21:46:05;8.00;99.90
45849;DHT22;31567;54.600;9.842;2024-01-30T21:49:46;8.10;99.90
45849;DHT22;31567;54.600;9.842;2024-01-30T21:53:25;8.10;99.90
45849;DHT22;31567;54.600;9.842;2024-01-30T21:57:05;8.10;99.90
45849;DHT22;31567;54.600;9.842;2024-01-30T22:00:45;8.10;99.90
45849;DHT22;31567;54.600;9.842;2024-01-30T22:04:24;8.10;99.90
45849;DHT22;31567;54.600;9.842;2024-01-30T22:08:04;8.00;99.90
45849;DHT22;31567;54.600;9.842;2024-01-30T22:11:44;8.10;99.90
45849;DHT22;31567;54.600;9.842;2024-01-30T22:15:23;8.00;99.90
45849;DHT22;31567;54.600;9.842;2024-01-30T22:19:03;8.10;99.90
45849;DHT22;31567;54.600;9.842;2024-01-30T22:22:42;8.00;99.90
45849;DHT22;31567;54.600;9.842;2024-01-30T22:26:22;8.00;99.90
45849;DHT22;31567;54.600;9.842;2024-01-30T22:30:01;7.90;99.90
45849;DHT22;31567;54.600;9.842;2024-01-30T22:33:41;7.90;99.90
45849;DHT22;31567;54.600;9.842;2024-01-30T22:37:21;7.90;99.90
45849;DHT22;31567;54.600;9.842;2024-01-30T22:41:00;7.80;99.90
45849;DHT22;31567;54.600;9.842;2024-01-30T22:44:40;7.70;99.90
45849;DHT22;31567;54.600;9.842;2024-01-30T22:48:19;7.70;99.90
45849;DHT22;31567;54.600;9.842;2024-01-30T22:51:59;7.60;99.90
45849;DHT22;31567;54.600;9.842;2024-01-30T22:55:39;7.60;99.90
45849;DHT22;31567;54.600;9.842;2024-01-30T22:59:19;7.60;99.90
45849;DHT22;31567;54.600;9.842;2024-01-30T23:02:59;7.50;99.90
45849;DHT22;31567;54.600;9.842;2024-01-30T23:06:38;7.50;99.90
45849;DHT22;31567;54.600;9.842;2024-01-30T23:10:18;7.50;99.90
45849;DHT22;31567;54.600;9.842;2024-01-30T23:13:58;7.40;99.90
45849;DHT22;31567;54.600;9.842;2024-01-30T23:17:38;7.40;99.90
45849;DHT22;31567;54.600;9.842;2024-01-30T23:21:17;7.40;99.90
45849;DHT22;31567;54.600;9.842;2024-01-30T23:24:58;7.30;99.90
45849;DHT22;31567;54.600;9.842;2024-01-30T23:28:37;7.40;99.90